Augusta/Daniel Field, Georgia
Current Conditions -  °F | °C
As of 12:53 PM on Saturday 25 Oct 2014 (Local Time) from KDNL Reporting Station
Clear Clear  
Wind Chill: 71°   Ceiling: Unl
Heat Index: 71°   Visibility: 10mi
Dew Point: 44°   Wind: 3mph
Humidity: 38%   Direction: 360°N
Pressure: 30.04"   Gusts: NA
Location:  33.47°N, 82.03°W
Report Text: KDNL 251653Z AUTO 36003KT 10SM CLR 22/07 A3004 RMK AO2 SLP168 T02170067
Loading
Personal Weather Stations






























Interactive Weather Map New forecast layout! Learn more

10-Day Weather Forecast

Advertisements
Track Severe Weather on mobile